sensor_id;sensor_type;location;lat;lon;timestamp;temperature;humidity
26707;DHT22;14319;49.422;10.934;2024-02-16T00:01:20;8.80;95.70
26707;DHT22;14319;49.422;10.934;2024-02-16T00:03:21;8.80;95.70
26707;DHT22;14319;49.422;10.934;2024-02-16T00:05:22;8.90;95.80
26707;DHT22;14319;49.422;10.934;2024-02-16T00:07:23;8.80;95.80
26707;DHT22;14319;49.422;10.934;2024-02-16T00:09:23;8.90;95.80
26707;DHT22;14319;49.422;10.934;2024-02-16T00:11:24;8.90;96.10
26707;DHT22;14319;49.422;10.934;2024-02-16T00:13:25;8.90;96.10
26707;DHT22;14319;49.422;10.934;2024-02-16T00:15:26;8.90;96.20
26707;DHT22;14319;49.422;10.934;2024-02-16T00:17:27;9.00;96.00
26707;DHT22;14319;49.422;10.934;2024-02-16T00:19:27;9.00;96.30
26707;DHT22;14319;49.422;10.934;2024-02-16T00:21:28;9.00;96.00
26707;DHT22;14319;49.422;10.934;2024-02-16T00:23:29;8.90;96.60
26707;DHT22;14319;49.422;10.934;2024-02-16T00:25:29;8.90;96.60
26707;DHT22;14319;49.422;10.934;2024-02-16T00:27:30;8.90;96.30
26707;DHT22;14319;49.422;10.934;2024-02-16T00:29:31;9.00;96.30
26707;DHT22;14319;49.422;10.934;2024-02-16T00:31:31;9.00;96.20
26707;DHT22;14319;49.422;10.934;2024-02-16T00:33:32;9.10;94.40
26707;DHT22;14319;49.422;10.934;2024-02-16T00:35:33;9.10;94.80
26707;DHT22;14319;49.422;10.934;2024-02-16T00:37:34;9.10;94.10
26707;DHT22;14319;49.422;10.934;2024-02-16T00:39:38;9.00;94.90
26707;DHT22;14319;49.422;10.934;2024-02-16T00:41:41;9.10;93.90
26707;DHT22;14319;49.422;10.934;2024-02-16T00:43:41;9.00;93.90
26707;DHT22;14319;49.422;10.934;2024-02-16T00:45:45;8.90;94.50
26707;DHT22;14319;49.422;10.934;2024-02-16T00:47:46;9.00;93.80
26707;DHT22;14319;49.422;10.934;2024-02-16T00:49:46;9.10;93.50
26707;DHT22;14319;49.422;10.934;2024-02-16T00:51:47;8.90;94.30
26707;DHT22;14319;49.422;10.934;2024-02-16T00:53:48;8.80;94.60
26707;DHT22;14319;49.422;10.934;2024-02-16T00:55:48;8.60;94.80
26707;DHT22;14319;49.422;10.934;2024-02-16T00:57:49;8.50;96.10
26707;DHT22;14319;49.422;10.934;2024-02-16T00:59:49;8.70;96.00
26707;DHT22;14319;49.422;10.934;2024-02-16T01:01:50;8.80;95.60
26707;DHT22;14319;49.422;10.934;2024-02-16T01:03:50;8.90;94.40
26707;DHT22;14319;49.422;10.934;2024-02-16T01:05:52;9.00;94.20
26707;DHT22;14319;49.422;10.934;2024-02-16T01:07:53;9.00;94.10
26707;DHT22;14319;49.422;10.934;2024-02-16T01:09:54;9.10;93.50
26707;DHT22;14319;49.422;10.934;2024-02-16T01:11:55;9.00;93.60
26707;DHT22;14319;49.422;10.934;2024-02-16T01:13:56;8.80;95.70
26707;DHT22;14319;49.422;10.934;2024-02-16T01:15:57;8.80;95.40
26707;DHT22;14319;49.422;10.934;2024-02-16T01:17:57;8.80;95.10
26707;DHT22;14319;49.422;10.934;2024-02-16T01:20:00;8.80;95.40
26707;DHT22;14319;49.422;10.934;2024-02-16T01:22:01;8.80;95.30
26707;DHT22;14319;49.422;10.934;2024-02-16T01:24:01;8.60;95.70
26707;DHT22;14319;49.422;10.934;2024-02-16T01:26:02;8.40;96.40
26707;DHT22;14319;49.422;10.934;2024-02-16T01:28:03;8.40;97.00
26707;DHT22;14319;49.422;10.934;2024-02-16T01:30:04;8.60;96.60
26707;DHT22;14319;49.422;10.934;2024-02-16T01:32:05;8.50;96.00
26707;DHT22;14319;49.422;10.934;2024-02-16T01:34:05;8.40;96.80
26707;DHT22;14319;49.422;10.934;2024-02-16T01:36:06;8.50;97.10
26707;DHT22;14319;49.422;10.934;2024-02-16T01:38:06;8.40;97.00
26707;DHT22;14319;49.422;10.934;2024-02-16T01:40:09;8.50;97.10
26707;DHT22;14319;49.422;10.934;2024-02-16T01:42:14;8.60;96.30
26707;DHT22;14319;49.422;10.934;2024-02-16T01:44:14;8.60;95.50
26707;DHT22;14319;49.422;10.934;2024-02-16T01:46:17;8.50;96.30
26707;DHT22;14319;49.422;10.934;2024-02-16T01:48:17;8.60;96.20
26707;DHT22;14319;49.422;10.934;2024-02-16T01:50:19;8.70;95.60
26707;DHT22;14319;49.422;10.934;2024-02-16T01:52:20;8.70;95.40
26707;DHT22;14319;49.422;10.934;2024-02-16T01:54:20;8.70;95.60
26707;DHT22;14319;49.422;10.934;2024-02-16T01:56:21;8.60;95.60
26707;DHT22;14319;49.422;10.934;2024-02-16T01:58:22;8.50;96.20
26707;DHT22;14319;49.422;10.934;2024-02-16T02:00:23;8.50;96.50
26707;DHT22;14319;49.422;10.934;2024-02-16T02:02:24;8.50;96.40
26707;DHT22;14319;49.422;10.934;2024-02-16T02:04:25;8.60;96.10
26707;DHT22;14319;49.422;10.934;2024-02-16T02:06:25;8.70;96.10
26707;DHT22;14319;49.422;10.934;2024-02-16T02:08:26;8.70;95.60
26707;DHT22;14319;49.422;10.934;2024-02-16T02:10:27;8.80;95.50
26707;DHT22;14319;49.422;10.934;2024-02-16T02:12:27;8.70;95.10
26707;DHT22;14319;49.422;10.934;2024-02-16T02:14:28;8.70;95.60
26707;DHT22;14319;49.422;10.934;2024-02-16T02:16:28;8.70;95.70
26707;DHT22;14319;49.422;10.934;2024-02-16T02:18:29;8.80;95.50
26707;DHT22;14319;49.422;10.934;2024-02-16T02:20:30;8.80;95.20
26707;DHT22;14319;49.422;10.934;2024-02-16T02:22:31;8.80;94.60
26707;DHT22;14319;49.422;10.934;2024-02-16T02:24:31;8.80;94.90
26707;DHT22;14319;49.422;10.934;2024-02-16T02:26:32;8.70;95.40
26707;DHT22;14319;49.422;10.934;2024-02-16T02:28:33;8.70;95.50
26707;DHT22;14319;49.422;10.934;2024-02-16T02:30:34;8.90;95.10
26707;DHT22;14319;49.422;10.934;2024-02-16T02:32:35;8.90;94.70
26707;DHT22;14319;49.422;10.934;2024-02-16T02:34:35;8.80;95.30
26707;DHT22;14319;49.422;10.934;2024-02-16T02:36:39;8.80;94.70
26707;DHT22;14319;49.422;10.934;2024-02-16T02:38:40;8.90;94.50
26707;DHT22;14319;49.422;10.934;2024-02-16T02:40:40;8.90;94.70
26707;DHT22;14319;49.422;10.934;2024-02-16T02:42:41;8.80;95.00
26707;DHT22;14319;49.422;10.934;2024-02-16T02:44:42;8.80;95.00
26707;DHT22;14319;49.422;10.934;2024-02-16T02:46:49;8.90;94.70
26707;DHT22;14319;49.422;10.934;2024-02-16T02:48:50;8.90;94.00
26707;DHT22;14319;49.422;10.934;2024-02-16T02:50:51;8.90;94.10
26707;DHT22;14319;49.422;10.934;2024-02-16T02:52:52;8.90;94.50
26707;DHT22;14319;49.422;10.934;2024-02-16T02:54:53;8.90;94.70
26707;DHT22;14319;49.422;10.934;2024-02-16T02:56:53;8.90;95.00
26707;DHT22;14319;49.422;10.934;2024-02-16T02:58:54;8.90;94.40
26707;DHT22;14319;49.422;10.934;2024-02-16T03:00:55;8.90;94.30
26707;DHT22;14319;49.422;10.934;2024-02-16T03:02:56;8.90;94.00
26707;DHT22;14319;49.422;10.934;2024-02-16T03:04:57;8.80;93.90
26707;DHT22;14319;49.422;10.934;2024-02-16T03:06:57;8.50;94.80
26707;DHT22;14319;49.422;10.934;2024-02-16T03:08:58;8.40;96.40
26707;DHT22;14319;49.422;10.934;2024-02-16T03:10:59;8.40;96.80
26707;DHT22;14319;49.422;10.934;2024-02-16T03:13:04;8.50;96.50
26707;DHT22;14319;49.422;10.934;2024-02-16T03:15:05;8.70;95.70
26707;DHT22;14319;49.422;10.934;2024-02-16T03:17:06;8.80;94.60
26707;DHT22;14319;49.422;10.934;2024-02-16T03:19:06;8.90;94.10
26707;DHT22;14319;49.422;10.934;2024-02-16T03:21:13;8.90;94.30
26707;DHT22;14319;49.422;10.934;2024-02-16T03:23:15;8.90;94.20
26707;DHT22;14319;49.422;10.934;2024-02-16T03:25:16;8.90;94.10
26707;DHT22;14319;49.422;10.934;2024-02-16T03:27:17;9.00;93.80
26707;DHT22;14319;49.422;10.934;2024-02-16T03:29:17;9.00;93.50
26707;DHT22;14319;49.422;10.934;2024-02-16T03:31:19;9.10;93.30
26707;DHT22;14319;49.422;10.934;2024-02-16T03:33:20;9.10;93.30
26707;DHT22;14319;49.422;10.934;2024-02-16T03:35:21;9.10;93.30
26707;DHT22;14319;49.422;10.934;2024-02-16T03:37:22;9.10;93.40
26707;DHT22;14319;49.422;10.934;2024-02-16T03:39:22;9.10;93.40
26707;DHT22;14319;49.422;10.934;2024-02-16T03:41:23;9.00;93.40
26707;DHT22;14319;49.422;10.934;2024-02-16T03:43:24;9.10;93.50
26707;DHT22;14319;49.422;10.934;2024-02-16T03:45:24;9.10;93.40
26707;DHT22;14319;49.422;10.934;2024-02-16T03:47:27;9.10;93.10
26707;DHT22;14319;49.422;10.934;2024-02-16T03:49:27;9.10;93.00
26707;DHT22;14319;49.422;10.934;2024-02-16T03:51:28;9.10;93.10
26707;DHT22;14319;49.422;10.934;2024-02-16T03:53:29;9.10;93.30
26707;DHT22;14319;49.422;10.934;2024-02-16T03:55:30;9.10;92.60
26707;DHT22;14319;49.422;10.934;2024-02-16T03:57:33;9.10;93.00
26707;DHT22;14319;49.422;10.934;2024-02-16T03:59:34;9.10;92.90
26707;DHT22;14319;49.422;10.934;2024-02-16T04:01:35;9.10;92.80
26707;DHT22;14319;49.422;10.934;2024-02-16T04:03:35;9.00;92.80
26707;DHT22;14319;49.422;10.934;2024-02-16T04:05:38;9.00;93.20
26707;DHT22;14319;49.422;10.934;2024-02-16T04:07:39;9.10;93.20
26707;DHT22;14319;49.422;10.934;2024-02-16T04:09:40;9.10;93.00
26707;DHT22;14319;49.422;10.934;2024-02-16T04:11:40;9.10;93.00
26707;DHT22;14319;49.422;10.934;2024-02-16T04:13:41;9.10;93.10
26707;DHT22;14319;49.422;10.934;2024-02-16T04:15:42;9.10;93.10
26707;DHT22;14319;49.422;10.934;2024-02-16T04:17:42;9.10;93.00
26707;DHT22;14319;49.422;10.934;2024-02-16T04:19:43;9.10;92.30
26707;DHT22;14319;49.422;10.934;2024-02-16T04:21:44;9.20;92.20
26707;DHT22;14319;49.422;10.934;2024-02-16T04:23:44;9.20;91.90
26707;DHT22;14319;49.422;10.934;2024-02-16T04:25:45;9.10;92.50
26707;DHT22;14319;49.422;10.934;2024-02-16T04:27:45;9.00;92.90
26707;DHT22;14319;49.422;10.934;2024-02-16T04:29:46;9.00;93.40
26707;DHT22;14319;49.422;10.934;2024-02-16T04:31:47;9.00;93.40
26707;DHT22;14319;49.422;10.934;2024-02-16T04:33:48;9.10;92.30
26707;DHT22;14319;49.422;10.934;2024-02-16T04:35:48;9.20;92.00
26707;DHT22;14319;49.422;10.934;2024-02-16T04:37:50;9.20;91.70
26707;DHT22;14319;49.422;10.934;2024-02-16T04:39:51;9.10;92.60
26707;DHT22;14319;49.422;10.934;2024-02-16T04:41:52;9.20;92.00
26707;DHT22;14319;49.422;10.934;2024-02-16T04:43:53;9.10;92.60
26707;DHT22;14319;49.422;10.934;2024-02-16T04:45:54;9.10;92.10
26707;DHT22;14319;49.422;10.934;2024-02-16T04:47:54;9.10;92.00
26707;DHT22;14319;49.422;10.934;2024-02-16T04:49:55;9.10;92.20
26707;DHT22;14319;49.422;10.934;2024-02-16T04:51:56;9.20;91.90
26707;DHT22;14319;49.422;10.934;2024-02-16T04:53:56;9.10;91.70
26707;DHT22;14319;49.422;10.934;2024-02-16T04:55:57;9.10;92.10
26707;DHT22;14319;49.422;10.934;2024-02-16T04:57:57;9.00;92.40
26707;DHT22;14319;49.422;10.934;2024-02-16T04:59:59;9.00;93.10
26707;DHT22;14319;49.422;10.934;2024-02-16T05:01:59;8.90;93.30
26707;DHT22;14319;49.422;10.934;2024-02-16T05:04:00;9.00;92.80
26707;DHT22;14319;49.422;10.934;2024-02-16T05:06:02;9.00;92.50
26707;DHT22;14319;49.422;10.934;2024-02-16T05:08:03;8.90;93.10
26707;DHT22;14319;49.422;10.934;2024-02-16T05:10:07;8.80;93.50
26707;DHT22;14319;49.422;10.934;2024-02-16T05:12:08;8.90;93.40
26707;DHT22;14319;49.422;10.934;2024-02-16T05:14:10;8.80;93.50
26707;DHT22;14319;49.422;10.934;2024-02-16T05:16:12;8.70;94.10
26707;DHT22;14319;49.422;10.934;2024-02-16T05:18:12;8.70;94.10
26707;DHT22;14319;49.422;10.934;2024-02-16T05:20:13;8.70;93.90
26707;DHT22;14319;49.422;10.934;2024-02-16T05:22:15;8.70;94.40
26707;DHT22;14319;49.422;10.934;2024-02-16T05:24:17;8.70;94.40
26707;DHT22;14319;49.422;10.934;2024-02-16T05:26:18;8.80;93.60
26707;DHT22;14319;49.422;10.934;2024-02-16T05:28:18;8.60;93.90
26707;DHT22;14319;49.422;10.934;2024-02-16T05:30:19;8.70;93.80
26707;DHT22;14319;49.422;10.934;2024-02-16T05:32:19;8.70;94.40
26707;DHT22;14319;49.422;10.934;2024-02-16T05:34:20;8.80;93.80
26707;DHT22;14319;49.422;10.934;2024-02-16T05:36:21;8.70;93.70
26707;DHT22;14319;49.422;10.934;2024-02-16T05:38:25;8.80;93.70
26707;DHT22;14319;49.422;10.934;2024-02-16T05:40:41;8.80;93.20
26707;DHT22;14319;49.422;10.934;2024-02-16T05:42:55;8.70;93.50
26707;DHT22;14319;49.422;10.934;2024-02-16T05:44:58;8.70;93.60
26707;DHT22;14319;49.422;10.934;2024-02-16T05:46:59;8.50;93.80
26707;DHT22;14319;49.422;10.934;2024-02-16T05:49:00;8.40;94.50
26707;DHT22;14319;49.422;10.934;2024-02-16T05:51:03;8.50;94.50
26707;DHT22;14319;49.422;10.934;2024-02-16T05:53:05;8.50;94.60
26707;DHT22;14319;49.422;10.934;2024-02-16T05:55:07;8.50;94.40
26707;DHT22;14319;49.422;10.934;2024-02-16T05:57:08;8.40;94.20
26707;DHT22;14319;49.422;10.934;2024-02-16T05:59:09;8.50;94.90
26707;DHT22;14319;49.422;10.934;2024-02-16T06:01:09;8.50;94.60
26707;DHT22;14319;49.422;10.934;2024-02-16T06:03:13;8.60;94.00
26707;DHT22;14319;49.422;10.934;2024-02-16T06:05:14;8.60;93.30
26707;DHT22;14319;49.422;10.934;2024-02-16T06:07:17;8.70;93.50
26707;DHT22;14319;49.422;10.934;2024-02-16T06:09:18;8.70;93.10
26707;DHT22;14319;49.422;10.934;2024-02-16T06:11:19;8.40;93.90
26707;DHT22;14319;49.422;10.934;2024-02-16T06:13:20;8.10;95.00
26707;DHT22;14319;49.422;10.934;2024-02-16T06:15:22;8.00;96.10
26707;DHT22;14319;49.422;10.934;2024-02-16T06:17:23;8.00;97.00
26707;DHT22;14319;49.422;10.934;2024-02-16T06:19:24;8.30;95.80
26707;DHT22;14319;49.422;10.934;2024-02-16T06:21:24;8.40;94.60
26707;DHT22;14319;49.422;10.934;2024-02-16T06:23:25;8.40;94.20
26707;DHT22;14319;49.422;10.934;2024-02-16T06:25:25;8.30;94.40
26707;DHT22;14319;49.422;10.934;2024-02-16T06:27:26;8.20;95.10
26707;DHT22;14319;49.422;10.934;2024-02-16T06:29:27;8.20;95.00
26707;DHT22;14319;49.422;10.934;2024-02-16T06:31:28;8.20;95.90
26707;DHT22;14319;49.422;10.934;2024-02-16T06:33:31;8.20;95.40
26707;DHT22;14319;49.422;10.934;2024-02-16T06:35:32;8.10;94.80
26707;DHT22;14319;49.422;10.934;2024-02-16T06:37:33;8.00;95.70
26707;DHT22;14319;49.422;10.934;2024-02-16T06:39:34;8.10;95.90
26707;DHT22;14319;49.422;10.934;2024-02-16T06:41:34;8.20;95.90
26707;DHT22;14319;49.422;10.934;2024-02-16T06:43:35;8.30;95.20
26707;DHT22;14319;49.422;10.934;2024-02-16T06:45:36;8.30;95.30
26707;DHT22;14319;49.422;10.934;2024-02-16T06:47:36;8.40;94.90
26707;DHT22;14319;49.422;10.934;2024-02-16T06:49:37;8.50;94.50
26707;DHT22;14319;49.422;10.934;2024-02-16T06:51:38;8.50;94.60
26707;DHT22;14319;49.422;10.934;2024-02-16T06:53:38;8.60;94.30
26707;DHT22;14319;49.422;10.934;2024-02-16T06:55:39;8.60;93.90
26707;DHT22;14319;49.422;10.934;2024-02-16T06:57:40;8.60;94.20
26707;DHT22;14319;49.422;10.934;2024-02-16T06:59:41;8.50;94.70
26707;DHT22;14319;49.422;10.934;2024-02-16T07:01:41;8.50;94.40
26707;DHT22;14319;49.422;10.934;2024-02-16T07:03:43;8.60;94.60
26707;DHT22;14319;49.422;10.934;2024-02-16T07:05:44;8.60;94.50
26707;DHT22;14319;49.422;10.934;2024-02-16T07:07:44;8.60;94.50
26707;DHT22;14319;49.422;10.934;2024-02-16T07:09:45;8.50;94.50
26707;DHT22;14319;49.422;10.934;2024-02-16T07:11:46;8.50;95.00
26707;DHT22;14319;49.422;10.934;2024-02-16T07:13:46;8.60;94.80
26707;DHT22;14319;49.422;10.934;2024-02-16T07:15:47;8.70;94.20
26707;DHT22;14319;49.422;10.934;2024-02-16T07:17:48;8.70;93.80
26707;DHT22;14319;49.422;10.934;2024-02-16T07:19:48;8.70;94.20
26707;DHT22;14319;49.422;10.934;2024-02-16T07:21:49;8.70;94.20
26707;DHT22;14319;49.422;10.934;2024-02-16T07:23:50;8.80;93.80
26707;DHT22;14319;49.422;10.934;2024-02-16T07:25:51;8.80;93.30
26707;DHT22;14319;49.422;10.934;2024-02-16T07:27:55;8.90;93.40
26707;DHT22;14319;49.422;10.934;2024-02-16T07:29:56;8.90;93.50
26707;DHT22;14319;49.422;10.934;2024-02-16T07:31:57;9.00;93.20
26707;DHT22;14319;49.422;10.934;2024-02-16T07:33:57;9.00;92.60
26707;DHT22;14319;49.422;10.934;2024-02-16T07:35:58;9.10;92.80
26707;DHT22;14319;49.422;10.934;2024-02-16T07:37:59;9.10;92.70
26707;DHT22;14319;49.422;10.934;2024-02-16T07:39:59;9.10;92.60
26707;DHT22;14319;49.422;10.934;2024-02-16T07:42:00;9.10;92.70
26707;DHT22;14319;49.422;10.934;2024-02-16T07:44:00;9.10;92.50
26707;DHT22;14319;49.422;10.934;2024-02-16T07:46:01;9.10;92.70
26707;DHT22;14319;49.422;10.934;2024-02-16T07:48:05;9.10;92.60
26707;DHT22;14319;49.422;10.934;2024-02-16T07:50:06;9.10;92.80
26707;DHT22;14319;49.422;10.934;2024-02-16T07:52:06;9.10;92.80
26707;DHT22;14319;49.422;10.934;2024-02-16T07:54:07;9.10;92.90
26707;DHT22;14319;49.422;10.934;2024-02-16T07:56:08;9.10;93.40
26707;DHT22;14319;49.422;10.934;2024-02-16T07:58:14;9.10;93.30
26707;DHT22;14319;49.422;10.934;2024-02-16T08:00:15;9.00;93.20
26707;DHT22;14319;49.422;10.934;2024-02-16T08:02:16;8.90;94.90
26707;DHT22;14319;49.422;10.934;2024-02-16T08:04:18;8.80;94.70
26707;DHT22;14319;49.422;10.934;2024-02-16T08:06:18;8.80;95.30
26707;DHT22;14319;49.422;10.934;2024-02-16T08:08:24;8.80;96.20
26707;DHT22;14319;49.422;10.934;2024-02-16T08:10:24;8.90;96.40
26707;DHT22;14319;49.422;10.934;2024-02-16T08:12:26;9.10;95.60
26707;DHT22;14319;49.422;10.934;2024-02-16T08:14:28;9.20;94.90
26707;DHT22;14319;49.422;10.934;2024-02-16T08:16:29;9.30;94.10
26707;DHT22;14319;49.422;10.934;2024-02-16T08:18:29;9.40;93.90
26707;DHT22;14319;49.422;10.934;2024-02-16T08:20:30;9.50;93.30
26707;DHT22;14319;49.422;10.934;2024-02-16T08:22:30;9.50;93.50
26707;DHT22;14319;49.422;10.934;2024-02-16T08:24:33;9.50;93.40
26707;DHT22;14319;49.422;10.934;2024-02-16T08:26:34;9.50;93.40
26707;DHT22;14319;49.422;10.934;2024-02-16T08:28:34;9.50;93.80
26707;DHT22;14319;49.422;10.934;2024-02-16T08:30:35;9.60;93.90
26707;DHT22;14319;49.422;10.934;2024-02-16T08:32:36;9.60;93.80
26707;DHT22;14319;49.422;10.934;2024-02-16T08:34:37;9.60;94.00
26707;DHT22;14319;49.422;10.934;2024-02-16T08:36:38;9.60;94.50
26707;DHT22;14319;49.422;10.934;2024-02-16T08:38:40;9.70;94.60
26707;DHT22;14319;49.422;10.934;2024-02-16T08:40:41;9.70;94.10
26707;DHT22;14319;49.422;10.934;2024-02-16T08:42:42;9.80;94.40
26707;DHT22;14319;49.422;10.934;2024-02-16T08:44:42;9.80;93.40
26707;DHT22;14319;49.422;10.934;2024-02-16T08:46:43;9.90;93.70
26707;DHT22;14319;49.422;10.934;2024-02-16T08:48:47;10.00;92.50
26707;DHT22;14319;49.422;10.934;2024-02-16T08:50:48;10.00;92.00
26707;DHT22;14319;49.422;10.934;2024-02-16T08:52:48;10.00;91.80
26707;DHT22;14319;49.422;10.934;2024-02-16T08:54:49;10.10;91.90
26707;DHT22;14319;49.422;10.934;2024-02-16T08:56:50;10.10;91.80
26707;DHT22;14319;49.422;10.934;2024-02-16T08:58:50;10.20;91.60
26707;DHT22;14319;49.422;10.934;2024-02-16T09:00:51;10.20;91.40
26707;DHT22;14319;49.422;10.934;2024-02-16T09:02:51;10.20;92.20
26707;DHT22;14319;49.422;10.934;2024-02-16T09:04:52;10.20;93.00
26707;DHT22;14319;49.422;10.934;2024-02-16T09:06:52;10.10;92.10
26707;DHT22;14319;49.422;10.934;2024-02-16T09:08:54;10.20;92.40
26707;DHT22;14319;49.422;10.934;2024-02-16T09:10:55;10.30;91.90
26707;DHT22;14319;49.422;10.934;2024-02-16T09:12:55;10.30;92.20
26707;DHT22;14319;49.422;10.934;2024-02-16T09:14:56;10.30;93.30
26707;DHT22;14319;49.422;10.934;2024-02-16T09:16:56;10.30;92.10
26707;DHT22;14319;49.422;10.934;2024-02-16T09:18:58;10.40;91.70
26707;DHT22;14319;49.422;10.934;2024-02-16T09:20:59;10.40;92.60
26707;DHT22;14319;49.422;10.934;2024-02-16T09:23:00;10.40;92.40
26707;DHT22;14319;49.422;10.934;2024-02-16T09:25:01;10.40;92.60
26707;DHT22;14319;49.422;10.934;2024-02-16T09:27:02;10.40;91.20
26707;DHT22;14319;49.422;10.934;2024-02-16T09:29:05;10.50;91.60
26707;DHT22;14319;49.422;10.934;2024-02-16T09:31:07;10.50;91.00
26707;DHT22;14319;49.422;10.934;2024-02-16T09:33:08;10.60;91.00
26707;DHT22;14319;49.422;10.934;2024-02-16T09:35:09;10.70;91.10
26707;DHT22;14319;49.422;10.934;2024-02-16T09:37:09;10.70;92.00
26707;DHT22;14319;49.422;10.934;2024-02-16T09:39:12;10.80;90.80
26707;DHT22;14319;49.422;10.934;2024-02-16T09:41:13;10.80;90.50
26707;DHT22;14319;49.422;10.934;2024-02-16T09:43:42;10.80;91.20
26707;DHT22;14319;49.422;10.934;2024-02-16T09:45:43;10.90;90.00
26707;DHT22;14319;49.422;10.934;2024-02-16T09:47:45;11.00;90.60
26707;DHT22;14319;49.422;10.934;2024-02-16T09:49:47;11.00;90.70
26707;DHT22;14319;49.422;10.934;2024-02-16T09:51:48;11.10;89.20
26707;DHT22;14319;49.422;10.934;2024-02-16T09:53:50;11.20;89.10
26707;DHT22;14319;49.422;10.934;2024-02-16T09:55:55;11.20;89.70
26707;DHT22;14319;49.422;10.934;2024-02-16T09:58:01;11.20;89.70
26707;DHT22;14319;49.422;10.934;2024-02-16T10:00:02;11.10;89.00
26707;DHT22;14319;49.422;10.934;2024-02-16T10:02:13;11.20;89.70
26707;DHT22;14319;49.422;10.934;2024-02-16T10:04:13;11.20;89.20
26707;DHT22;14319;49.422;10.934;2024-02-16T10:06:15;11.20;89.60
26707;DHT22;14319;49.422;10.934;2024-02-16T10:08:16;11.20;89.10
26707;DHT22;14319;49.422;10.934;2024-02-16T10:10:28;11.40;88.80
26707;DHT22;14319;49.422;10.934;2024-02-16T10:12:33;11.40;89.10
26707;DHT22;14319;49.422;10.934;2024-02-16T10:14:34;11.50;89.80
26707;DHT22;14319;49.422;10.934;2024-02-16T10:16:34;11.60;89.50
26707;DHT22;14319;49.422;10.934;2024-02-16T10:18:38;11.60;89.20
26707;DHT22;14319;49.422;10.934;2024-02-16T10:20:39;11.70;90.70
26707;DHT22;14319;49.422;10.934;2024-02-16T10:22:40;11.70;90.30
26707;DHT22;14319;49.422;10.934;2024-02-16T10:24:41;11.80;88.90
26707;DHT22;14319;49.422;10.934;2024-02-16T10:26:43;11.80;89.90
26707;DHT22;14319;49.422;10.934;2024-02-16T10:28:43;11.80;89.40
26707;DHT22;14319;49.422;10.934;2024-02-16T10:30:47;11.90;90.20
26707;DHT22;14319;49.422;10.934;2024-02-16T10:32:48;11.90;89.50
26707;DHT22;14319;49.422;10.934;2024-02-16T10:34:49;11.90;89.20
26707;DHT22;14319;49.422;10.934;2024-02-16T10:36:51;12.00;88.20
26707;DHT22;14319;49.422;10.934;2024-02-16T10:38:53;11.90;90.00
26707;DHT22;14319;49.422;10.934;2024-02-16T10:40:56;12.00;88.60
26707;DHT22;14319;49.422;10.934;2024-02-16T10:42:57;12.00;88.90
26707;DHT22;14319;49.422;10.934;2024-02-16T10:44:57;12.10;88.20
26707;DHT22;14319;49.422;10.934;2024-02-16T10:46:58;12.10;88.50
26707;DHT22;14319;49.422;10.934;2024-02-16T10:49:00;12.00;88.60
26707;DHT22;14319;49.422;10.934;2024-02-16T10:51:01;11.90;88.50
26707;DHT22;14319;49.422;10.934;2024-02-16T10:55:11;12.00;88.50
26707;DHT22;14319;49.422;10.934;2024-02-16T10:57:12;12.00;89.00
26707;DHT22;14319;49.422;10.934;2024-02-16T10:59:13;12.00;90.70
26707;DHT22;14319;49.422;10.934;2024-02-16T11:01:15;12.00;90.20
26707;DHT22;14319;49.422;10.934;2024-02-16T11:03:17;12.00;89.40
26707;DHT22;14319;49.422;10.934;2024-02-16T11:05:19;12.00;90.00
26707;DHT22;14319;49.422;10.934;2024-02-16T11:07:20;12.00;89.20
26707;DHT22;14319;49.422;10.934;2024-02-16T11:09:34;11.90;88.90
26707;DHT22;14319;49.422;10.934;2024-02-16T11:11:36;12.00;88.50
26707;DHT22;14319;49.422;10.934;2024-02-16T11:13:37;12.00;88.20
26707;DHT22;14319;49.422;10.934;2024-02-16T11:15:38;12.00;87.50
26707;DHT22;14319;49.422;10.934;2024-02-16T11:17:40;12.00;86.10
26707;DHT22;14319;49.422;10.934;2024-02-16T11:19:42;12.10;86.70
26707;DHT22;14319;49.422;10.934;2024-02-16T11:21:58;12.20;86.00
26707;DHT22;14319;49.422;10.934;2024-02-16T11:24:06;12.20;86.60
26707;DHT22;14319;49.422;10.934;2024-02-16T11:26:10;12.20;86.90
26707;DHT22;14319;49.422;10.934;2024-02-16T11:28:14;12.20;86.40
26707;DHT22;14319;49.422;10.934;2024-02-16T11:30:14;12.20;86.90
26707;DHT22;14319;49.422;10.934;2024-02-16T11:32:15;12.20;86.60
26707;DHT22;14319;49.422;10.934;2024-02-16T11:34:23;12.30;86.10
26707;DHT22;14319;49.422;10.934;2024-02-16T11:36:27;12.30;85.50
26707;DHT22;14319;49.422;10.934;2024-02-16T11:38:31;12.20;85.30
26707;DHT22;14319;49.422;10.934;2024-02-16T11:40:33;12.30;85.00
26707;DHT22;14319;49.422;10.934;2024-02-16T11:42:35;12.30;85.30
26707;DHT22;14319;49.422;10.934;2024-02-16T11:44:37;12.40;85.60
26707;DHT22;14319;49.422;10.934;2024-02-16T11:46:40;12.40;84.60
26707;DHT22;14319;49.422;10.934;2024-02-16T11:48:41;12.40;84.90
26707;DHT22;14319;49.422;10.934;2024-02-16T11:50:41;12.50;84.90
26707;DHT22;14319;49.422;10.934;2024-02-16T11:52:42;12.50;86.10
26707;DHT22;14319;49.422;10.934;2024-02-16T11:54:45;12.50;85.60
26707;DHT22;14319;49.422;10.934;2024-02-16T11:56:46;12.50;85.70
26707;DHT22;14319;49.422;10.934;2024-02-16T11:58:47;12.60;85.30
26707;DHT22;14319;49.422;10.934;2024-02-16T12:00:48;12.60;85.40
26707;DHT22;14319;49.422;10.934;2024-02-16T12:02:59;12.60;84.80
26707;DHT22;14319;49.422;10.934;2024-02-16T12:05:00;12.70;85.70
26707;DHT22;14319;49.422;10.934;2024-02-16T12:07:02;12.60;85.20
26707;DHT22;14319;49.422;10.934;2024-02-16T12:09:03;12.70;85.90
26707;DHT22;14319;49.422;10.934;2024-02-16T12:11:04;12.70;85.80
26707;DHT22;14319;49.422;10.934;2024-02-16T12:13:05;12.70;87.60
26707;DHT22;14319;49.422;10.934;2024-02-16T12:15:06;12.80;86.30
26707;DHT22;14319;49.422;10.934;2024-02-16T12:17:08;12.80;85.60
26707;DHT22;14319;49.422;10.934;2024-02-16T12:19:08;12.80;85.40
26707;DHT22;14319;49.422;10.934;2024-02-16T12:21:11;12.90;85.70
26707;DHT22;14319;49.422;10.934;2024-02-16T12:23:12;12.90;84.90
26707;DHT22;14319;49.422;10.934;2024-02-16T12:25:13;12.80;85.60
26707;DHT22;14319;49.422;10.934;2024-02-16T12:27:14;12.80;84.70
26707;DHT22;14319;49.422;10.934;2024-02-16T12:29:15;12.70;84.90
26707;DHT22;14319;49.422;10.934;2024-02-16T12:31:23;12.80;85.10
26707;DHT22;14319;49.422;10.934;2024-02-16T12:33:24;12.80;85.70
26707;DHT22;14319;49.422;10.934;2024-02-16T12:35:25;12.90;85.50
26707;DHT22;14319;49.422;10.934;2024-02-16T12:37:26;12.90;85.60
26707;DHT22;14319;49.422;10.934;2024-02-16T12:39:26;13.00;85.10
26707;DHT22;14319;49.422;10.934;2024-02-16T12:41:27;13.00;85.00
26707;DHT22;14319;49.422;10.934;2024-02-16T12:43:28;13.00;85.20
26707;DHT22;14319;49.422;10.934;2024-02-16T12:45:30;12.90;84.40